Time;durP1;ratioP1;P1;durP2;ratioP2;P2;SDS_P1;SDS_P2;PMS_P1;PMS_P2;Temp;Humidity;BMP_temperature;BMP_pressure;BME280_temperature;BME280_humidity;BME280_pressure;Samples;Min_cycle;Max_cycle;Signal;HPM_P1;HPM_P2
2021/03/29 00:01:10;;;;;;;28.20;15.37;;;;;;;4.55;54.99;101406.92;147786;1148;104552;-73
2021/03/29 00:04:13;;;;;;;31.80;16.23;;;;;;;4.60;55.08;101402.24;147683;1147;104553;-73
2021/03/29 00:07:18;;;;;;;25.80;14.87;;;;;;;4.64;55.60;101393.20;147699;1147;104522;-75
2021/03/29 00:10:23;;;;;;;30.30;16.02;;;;;;;4.69;55.12;101385.83;147363;1147;104953;-76
2021/03/29 00:13:29;;;;;;;27.75;15.68;;;;;;;4.72;55.19;101401.53;147388;1147;104562;-73
2021/03/29 00:16:35;;;;;;;28.40;14.75;;;;;;;4.76;55.68;101407.50;147627;1147;104476;-72
2021/03/29 00:19:39;;;;;;;27.47;15.17;;;;;;;4.78;55.28;101405.63;147748;1147;104457;-77
2021/03/29 00:22:43;;;;;;;26.90;14.68;;;;;;;4.81;54.97;101399.30;147743;1147;104454;-76
2021/03/29 00:25:46;;;;;;;28.57;15.45;;;;;;;4.83;55.31;101397.41;147453;1147;104912;-77
2021/03/29 00:28:49;;;;;;;27.85;14.70;;;;;;;4.85;55.79;101398.18;147735;1147;104611;-76
2021/03/29 00:31:54;;;;;;;27.70;15.37;;;;;;;4.88;55.37;101400.66;147730;1146;104458;-75
2021/03/29 00:34:57;;;;;;;25.25;14.65;;;;;;;4.91;55.27;101401.34;147760;1148;104515;-75
2021/03/29 00:38:01;;;;;;;28.52;14.73;;;;;;;4.94;55.46;101394.17;147754;1147;104552;-73
2021/03/29 00:41:09;;;;;;;26.37;14.63;;;;;;;4.97;55.12;101394.00;147757;1147;104547;-74
2021/03/29 00:44:13;;;;;;;24.72;13.83;;;;;;;4.99;55.25;101400.05;147762;1148;105093;-73
2021/03/29 00:47:17;;;;;;;25.75;14.45;;;;;;;5.02;55.59;101399.86;147366;1148;104569;-73
2021/03/29 00:50:28;;;;;;;25.82;14.60;;;;;;;5.03;55.47;101399.77;147783;1148;104473;-76
2021/03/29 00:53:33;;;;;;;25.65;14.73;;;;;;;5.04;55.57;101400.62;147405;1148;104829;-73
2021/03/29 00:56:38;;;;;;;26.77;14.03;;;;;;;5.06;55.51;101391.67;147386;1147;104521;-76
2021/03/29 00:59:42;;;;;;;25.35;14.23;;;;;;;5.10;55.44;101387.05;147581;1148;104667;-73
2021/03/29 01:02:46;;;;;;;27.13;15.73;;;;;;;5.14;55.30;101385.05;147938;1147;104484;-73
2021/03/29 01:05:55;;;;;;;25.93;14.50;;;;;;;5.17;55.66;101390.18;147819;1147;104825;-75
2021/03/29 01:09:02;;;;;;;27.85;14.50;;;;;;;5.18;55.47;101397.19;147426;1147;104471;-75
2021/03/29 01:12:09;;;;;;;25.70;14.85;;;;;;;5.17;55.68;101391.02;147454;1147;104549;-75
2021/03/29 01:15:15;;;;;;;24.25;13.53;;;;;;;5.18;55.63;101392.73;147396;1146;104660;-74
2021/03/29 01:18:21;;;;;;;26.82;14.07;;;;;;;5.19;55.63;101388.30;147515;1147;104566;-76
2021/03/29 01:21:46;;;;;;;26.27;13.83;;;;;;;5.19;55.64;101383.00;147719;1147;104553;-75
2021/03/29 01:24:54;;;;;;;27.13;14.43;;;;;;;5.18;55.54;101384.80;147559;1147;105119;-76
2021/03/29 01:28:00;;;;;;;27.82;14.25;;;;;;;5.19;55.51;101393.59;147498;1148;104885;-78
2021/03/29 01:31:05;;;;;;;25.97;13.80;;;;;;;5.20;55.72;101390.85;147533;1146;104605;-76
2021/03/29 01:34:10;;;;;;;26.50;13.98;;;;;;;5.19;56.00;101383.84;147641;1147;104518;-76
2021/03/29 01:37:13;;;;;;;27.67;14.35;;;;;;;5.21;55.83;101381.11;147796;1146;104460;-75
2021/03/29 01:40:19;;;;;;;26.35;13.68;;;;;;;5.20;55.85;101385.56;147606;1147;104548;-76
2021/03/29 01:43:24;;;;;;;24.87;14.55;;;;;;;5.21;56.15;101381.11;147784;1147;104922;-73
2021/03/29 01:46:28;;;;;;;25.35;14.03;;;;;;;5.21;56.07;101376.67;147770;1147;104598;-75
2021/03/29 01:49:32;;;;;;;25.17;14.13;;;;;;;5.20;55.94;101382.08;147719;1147;104943;-77
2021/03/29 01:52:35;;;;;;;24.77;14.03;;;;;;;5.21;55.70;101386.41;147816;1146;104506;-75
2021/03/29 01:55:40;;;;;;;22.77;13.80;;;;;;;5.22;55.94;101377.54;147629;1148;104555;-74
2021/03/29 01:58:44;;;;;;;24.00;14.03;;;;;;;5.25;55.92;101382.63;147811;1147;104473;-75
2021/03/29 02:01:47;;;;;;;29.52;14.05;;;;;;;5.26;56.18;101379.06;147714;1147;104544;-76
2021/03/29 02:04:51;;;;;;;24.07;13.88;;;;;;;5.28;56.09;101377.17;147544;1147;104569;-75
2021/03/29 02:07:55;;;;;;;28.10;14.80;;;;;;;5.29;55.55;101378.86;147802;1147;104471;-75
2021/03/29 02:10:59;;;;;;;26.30;14.87;;;;;;;5.34;56.27;101386.54;147765;1146;104459;-79
2021/03/29 02:14:03;;;;;;;25.25;14.70;;;;;;;5.36;56.21;101384.66;147788;1147;104510;-72
2021/03/29 02:17:09;;;;;;;22.57;13.23;;;;;;;5.39;55.82;101385.33;147685;1147;104608;-74
2021/03/29 02:20:15;;;;;;;25.20;14.03;;;;;;;5.42;56.04;101386.92;147665;1147;104552;-74
2021/03/29 02:23:19;;;;;;;26.75;14.38;;;;;;;5.46;56.22;101397.23;147451;1146;104518;-79
2021/03/29 02:26:23;;;;;;;26.40;14.87;;;;;;;5.47;56.27;101398.10;147799;1147;104476;-75
2021/03/29 02:29:27;;;;;;;25.77;14.30;;;;;;;5.51;56.25;101399.62;147563;1147;104479;-75
2021/03/29 02:32:31;;;;;;;25.10;13.83;;;;;;;5.54;56.23;101393.27;147598;1147;104605;-77
2021/03/29 02:35:36;;;;;;;23.55;13.72;;;;;;;5.58;56.30;101405.38;147540;1147;104518;-78
2021/03/29 02:38:40;;;;;;;25.55;14.28;;;;;;;5.59;56.57;101401.80;147721;1147;104588;-77
2021/03/29 02:41:43;;;;;;;25.82;15.30;;;;;;;5.59;56.82;101396.50;147769;1148;104454;-73
2021/03/29 02:44:47;;;;;;;25.65;13.78;;;;;;;5.59;56.80;101407.09;147614;1148;104583;-75
2021/03/29 02:47:53;;;;;;;23.62;13.65;;;;;;;5.61;56.67;101403.41;147257;1147;104627;-74
2021/03/29 02:50:59;;;;;;;22.33;13.47;;;;;;;5.64;57.06;101407.65;147386;1146;104559;-76
2021/03/29 02:54:04;;;;;;;21.35;12.30;;;;;;;5.65;57.23;101406.72;146996;1148;105000;-79
2021/03/29 02:57:09;;;;;;;20.73;12.93;;;;;;;5.68;57.38;101399.45;147518;1147;104556;-81
2021/03/29 03:00:16;;;;;;;21.02;11.18;;;;;;;5.66;57.51;101401.34;147396;1146;104593;-78
2021/03/29 03:03:19;;;;;;;25.45;13.22;;;;;;;5.71;58.11;101396.59;147742;1148;104567;-80
2021/03/29 03:06:25;;;;;;;25.80;13.15;;;;;;;5.82;58.22;101398.59;147648;1147;104656;-74
2021/03/29 03:09:28;;;;;;;22.70;12.05;;;;;;;5.95;57.86;101406.68;147480;1147;104472;-78
2021/03/29 03:12:32;;;;;;;21.82;12.07;;;;;;;6.04;58.33;101405.24;147755;1147;104551;-79
2021/03/29 03:15:37;;;;;;;23.62;12.18;;;;;;;6.13;57.76;101396.72;147759;1147;104550;-78
2021/03/29 03:18:40;;;;;;;24.15;13.72;;;;;;;6.17;58.43;101392.93;147778;1147;104567;-78
2021/03/29 03:21:43;;;;;;;24.02;13.00;;;;;;;6.22;57.94;101396.16;147753;1148;104438;-78
2021/03/29 03:24:47;;;;;;;23.35;13.58;;;;;;;6.23;58.17;101391.69;147759;1147;104479;-81
2021/03/29 03:27:51;;;;;;;22.13;13.88;;;;;;;6.23;58.40;101397.84;147734;1147;104499;-80
2021/03/29 03:30:56;;;;;;;22.32;13.00;;;;;;;6.25;58.47;101401.23;147740;1147;104529;-82
2021/03/29 03:34:00;;;;;;;24.25;13.15;;;;;;;6.24;58.49;101388.11;147723;1147;104608;-81
2021/03/29 03:37:07;;;;;;;21.60;12.30;;;;;;;6.23;58.95;101392.53;147747;1147;104583;-78
2021/03/29 03:40:13;;;;;;;22.17;12.40;;;;;;;6.23;58.97;101391.69;147784;1148;104825;-79
2021/03/29 03:43:20;;;;;;;18.87;12.40;;;;;;;6.21;59.34;101383.83;147458;1148;104553;-80
2021/03/29 03:46:25;;;;;;;18.87;11.67;;;;;;;6.19;59.33;101379.59;147835;1146;104491;-78
2021/03/29 03:49:30;;;;;;;22.05;12.15;;;;;;;6.14;59.57;101377.24;147740;1148;105077;-78
2021/03/29 03:52:34;;;;;;;21.73;11.90;;;;;;;6.11;59.85;101385.38;147787;1147;104511;-79
2021/03/29 03:55:38;;;;;;;18.45;10.58;;;;;;;6.15;59.54;101384.23;147585;1146;104429;-77
2021/03/29 03:58:43;;;;;;;20.08;10.75;;;;;;;6.20;59.26;101382.15;147598;1147;104470;-79
2021/03/29 04:01:58;;;;;;;20.65;10.93;;;;;;;6.25;60.04;101385.34;147513;1147;104543;-78
2021/03/29 04:05:01;;;;;;;20.68;11.55;;;;;;;6.32;59.87;101396.42;147706;1147;104542;-78
2021/03/29 04:08:05;;;;;;;19.25;11.30;;;;;;;6.37;58.98;101390.81;147449;1147;104475;-79
2021/03/29 04:11:09;;;;;;;18.77;10.55;;;;;;;6.37;59.33;101399.64;147259;1148;104442;-78
2021/03/29 04:14:12;;;;;;;17.42;10.58;;;;;;;6.37;59.56;101398.77;147588;1148;104454;-78
2021/03/29 04:17:15;;;;;;;16.23;10.10;;;;;;;6.40;59.69;101401.23;147724;1147;104550;-78
2021/03/29 04:20:19;;;;;;;15.38;9.93;;;;;;;6.37;60.25;101404.06;147732;1148;104563;-78
2021/03/29 04:23:24;;;;;;;19.45;10.63;;;;;;;6.37;59.14;101404.06;147769;1148;104555;-78
2021/03/29 04:26:27;;;;;;;19.67;10.68;;;;;;;6.37;60.10;101404.06;147785;1147;104473;-82
2021/03/29 04:29:30;;;;;;;20.25;11.63;;;;;;;6.38;60.00;101405.78;147610;1147;104536;-78
2021/03/29 04:32:33;;;;;;;16.42;9.60;;;;;;;6.38;59.78;101413.73;147518;1147;104898;-79
2021/03/29 04:35:37;;;;;;;17.40;9.98;;;;;;;6.37;59.95;101412.89;147328;1147;104537;-79
2021/03/29 04:38:40;;;;;;;20.90;10.97;;;;;;;6.36;60.09;101410.33;147760;1147;104626;-79
2021/03/29 04:41:43;;;;;;;20.33;10.67;;;;;;;6.34;60.04;101409.58;147730;1148;104451;-78
2021/03/29 04:44:46;;;;;;;16.00;9.57;;;;;;;6.37;60.09;101412.89;147360;1147;104540;-79
2021/03/29 04:47:50;;;;;;;18.77;10.30;;;;;;;6.44;60.52;101414.18;147420;1147;104877;-83
2021/03/29 04:50:53;;;;;;;14.50;9.70;;;;;;;6.52;60.53;101403.09;147623;1147;104614;-80
2021/03/29 04:53:56;;;;;;;16.97;10.23;;;;;;;6.58;60.44;101402.72;147784;1147;105877;-81
2021/03/29 04:56:59;;;;;;;19.23;11.57;;;;;;;6.61;59.51;101413.11;147249;1147;104503;-77
2021/03/29 05:00:07;;;;;;;18.92;11.10;;;;;;;6.66;59.66;101408.37;147822;1148;104463;-79
2021/03/29 05:03:10;;;;;;;19.10;10.77;;;;;;;6.69;60.64;101415.27;147773;1148;104551;-82
2021/03/29 05:06:13;;;;;;;16.97;10.82;;;;;;;6.71;60.52;101409.86;147795;1146;104503;-78
2021/03/29 05:09:17;;;;;;;17.25;10.75;;;;;;;6.72;60.81;101408.89;147735;1148;104527;-82
2021/03/29 05:12:22;;;;;;;21.10;10.78;;;;;;;6.73;59.59;101415.92;147730;1147;104498;-79
2021/03/29 05:15:26;;;;;;;17.82;11.28;;;;;;;6.73;60.43;101416.76;147809;1147;105049;-82
2021/03/29 05:18:29;;;;;;;18.17;11.20;;;;;;;6.75;60.58;101414.02;147701;1147;104542;-81
2021/03/29 05:21:32;;;;;;;21.23;11.27;;;;;;;6.74;60.17;101402.56;147748;1147;104547;-80
2021/03/29 05:24:36;;;;;;;17.60;11.08;;;;;;;6.78;60.26;101403.22;147734;1147;104540;-82
2021/03/29 05:27:39;;;;;;;19.12;11.83;;;;;;;6.75;60.98;101409.55;147799;1148;104470;-80
2021/03/29 05:30:42;;;;;;;19.65;11.38;;;;;;;6.78;61.30;101413.83;147782;1148;104453;-80
2021/03/29 05:33:46;;;;;;;23.12;11.63;;;;;;;6.82;61.31;101413.52;147570;1147;104544;-79
2021/03/29 05:36:50;;;;;;;20.08;10.98;;;;;;;6.88;61.21;101429.02;147665;1147;104525;-85
2021/03/29 05:39:54;;;;;;;20.65;11.12;;;;;;;6.97;60.37;101422.28;147728;1147;104532;-82
2021/03/29 05:42:58;;;;;;;24.85;12.47;;;;;;;7.01;60.46;101407.85;147587;1148;104553;-81
2021/03/29 05:46:02;;;;;;;20.55;12.82;;;;;;;7.02;60.35;101411.34;147575;1147;104895;-80
2021/03/29 05:49:07;;;;;;;26.40;13.20;;;;;;;7.01;60.97;101410.51;147467;1147;104470;-79
2021/03/29 05:52:10;;;;;;;23.65;13.53;;;;;;;7.02;60.55;101404.23;147628;1147;104602;-77
2021/03/29 05:55:17;;;;;;;20.77;12.67;;;;;;;7.04;61.03;101405.01;147464;1147;104460;-75
2021/03/29 05:58:36;;;;;;;22.65;13.15;;;;;;;7.03;61.61;101405.94;147434;1147;104467;-78
2021/03/29 06:01:45;;;;;;;21.30;12.28;;;;;;;7.07;60.84;101403.94;147451;1147;104544;-78
2021/03/29 06:04:50;;;;;;;22.93;13.18;;;;;;;7.11;61.49;101404.59;147328;1147;104540;-78
2021/03/29 06:08:00;;;;;;;23.87;13.77;;;;;;;7.17;61.68;101407.67;147507;1147;104649;-77
2021/03/29 06:11:03;;;;;;;22.67;13.48;;;;;;;7.25;60.52;101402.69;147503;1147;104524;-79
2021/03/29 06:14:15;;;;;;;25.35;13.78;;;;;;;7.36;60.81;101409.94;147461;1147;104650;-75
2021/03/29 06:17:22;;;;;;;21.85;12.43;;;;;;;7.43;61.58;101411.23;147605;1147;104476;-77
2021/03/29 06:20:25;;;;;;;21.02;11.78;;;;;;;7.56;60.74;101415.70;147606;1146;104470;-78
2021/03/29 06:23:29;;;;;;;24.12;12.93;;;;;;;7.75;60.93;101416.13;147523;1147;104562;-78
2021/03/29 06:26:34;;;;;;;21.80;12.47;;;;;;;7.89;61.03;101423.16;147584;1147;104452;-78
2021/03/29 06:29:37;;;;;;;22.10;12.40;;;;;;;8.02;60.98;101423.14;147531;1147;104457;-76
2021/03/29 06:32:51;;;;;;;20.72;12.63;;;;;;;8.10;61.47;101431.41;147562;1147;104485;-78
2021/03/29 06:35:55;;;;;;;19.70;11.97;;;;;;;8.10;60.46;101438.55;147660;1147;104470;-78
2021/03/29 06:39:11;;;;;;;22.23;11.93;;;;;;;8.09;60.32;101434.20;147481;1147;104544;-79
2021/03/29 06:42:14;;;;;;;21.60;12.33;;;;;;;8.04;61.46;101432.72;147558;1147;104600;-77
2021/03/29 06:45:18;;;;;;;21.15;11.85;;;;;;;8.04;60.43;101430.06;147492;1147;104575;-79
2021/03/29 06:48:24;;;;;;;20.80;11.80;;;;;;;8.04;60.43;101431.84;147468;1147;104579;-77
2021/03/29 06:51:31;;;;;;;19.35;12.37;;;;;;;8.05;60.50;101430.91;147487;1147;104484;-78
2021/03/29 06:54:34;;;;;;;21.33;12.45;;;;;;;8.12;61.45;101429.53;147627;1146;104545;-78
2021/03/29 06:57:40;;;;;;;22.87;13.50;;;;;;;8.19;61.07;101417.48;147624;1147;104457;-78
2021/03/29 07:00:43;;;;;;;20.45;13.00;;;;;;;8.31;61.93;101417.56;147525;1147;104502;-77
2021/03/29 07:03:48;;;;;;;20.93;12.93;;;;;;;8.42;61.60;101425.66;147420;1147;104470;-79
2021/03/29 07:06:52;;;;;;;25.80;12.93;;;;;;;8.42;61.21;101420.34;147561;1147;104563;-78
2021/03/29 07:09:57;;;;;;;23.97;11.83;;;;;;;8.49;61.42;101426.92;147480;1148;104550;-78
2021/03/29 07:13:03;;;;;;;21.25;12.73;;;;;;;8.60;61.31;101431.45;147449;1147;104466;-77
2021/03/29 07:16:08;;;;;;;21.52;13.90;;;;;;;8.74;61.18;101428.65;147544;1147;104531;-78
2021/03/29 07:19:11;;;;;;;24.30;13.83;;;;;;;8.83;61.34;101429.77;147535;1147;104448;-78
2021/03/29 07:22:16;;;;;;;24.65;14.40;;;;;;;8.91;61.78;101432.73;147365;1147;104440;-78
2021/03/29 07:25:22;;;;;;;25.48;14.87;;;;;;;8.87;61.56;101438.38;147298;1146;104545;-79
2021/03/29 07:28:29;;;;;;;22.73;13.97;;;;;;;8.86;61.37;101434.04;147459;1147;104612;-78
2021/03/29 07:31:42;;;;;;;47.60;32.00;;;;;;;8.82;61.16;101441.39;147503;1147;104657;-78
2021/03/29 07:34:48;;;;;;;41.37;26.87;;;;;;;8.82;61.63;101436.07;147374;1147;104450;-78
2021/03/29 07:37:59;;;;;;;39.78;27.80;;;;;;;8.88;61.20;101432.95;147539;1147;104576;-77
2021/03/29 07:41:02;;;;;;;26.57;17.23;;;;;;;8.93;61.87;101436.14;147389;1148;104499;-78
2021/03/29 07:44:14;;;;;;;50.52;36.40;;;;;;;9.08;61.44;101434.13;147433;1147;104652;-78
2021/03/29 07:47:44;;;;;;;41.65;28.92;;;;;;;9.23;61.85;101427.65;147555;1147;104534;-78
2021/03/29 07:50:49;;;;;;;50.67;37.07;;;;;;;9.32;61.32;101431.45;147633;1147;104546;-79
2021/03/29 07:53:59;;;;;;;33.85;20.90;;;;;;;9.41;61.42;101432.55;147579;1147;104518;-79
2021/03/29 07:57:02;;;;;;;30.60;18.00;;;;;;;9.56;61.01;101423.38;147467;1147;104668;-77
2021/03/29 08:00:07;;;;;;;26.27;17.30;;;;;;;9.74;61.81;101413.14;147800;1147;104614;-82
2021/03/29 08:03:36;;;;;;;87.47;48.35;;;;;;;9.93;61.32;101425.88;147618;1146;104456;-78
2021/03/29 08:06:48;;;;;;;31.20;20.60;;;;;;;10.14;61.07;101428.68;147583;1147;104588;-77
2021/03/29 08:09:51;;;;;;;486.60;304.73;;;;;;;10.36;61.06;101418.99;147839;1146;104546;-77
2021/03/29 08:12:58;;;;;;;147.22;93.50;;;;;;;10.52;61.04;101418.59;147608;1147;104652;-78
2021/03/29 08:16:02;;;;;;;93.33;63.65;;;;;;;10.72;61.19;101419.63;147416;1147;104481;-79
2021/03/29 08:19:14;;;;;;;61.10;40.17;;;;;;;10.81;59.74;101422.39;147531;1147;104543;-78
2021/03/29 08:22:18;;;;;;;42.53;29.77;;;;;;;10.94;60.97;101411.56;147479;1147;104527;-79
2021/03/29 08:25:31;;;;;;;76.67;56.33;;;;;;;10.98;60.07;101413.00;147657;1147;104535;-76
2021/03/29 08:29:18;;;;;;;36.33;24.02;;;;;;;11.05;60.25;101408.02;147694;1147;104560;-77
2021/03/29 08:32:31;;;;;;;54.15;38.90;;;;;;;11.20;60.52;101405.86;146990;1151;104707;-77
2021/03/29 08:35:34;;;;;;;40.95;29.70;;;;;;;11.31;60.02;101407.64;147702;1147;104506;-77
2021/03/29 08:38:37;;;;;;;77.67;52.08;;;;;;;11.35;59.92;101404.56;147633;1147;104547;-79
2021/03/29 08:41:42;;;;;;;67.47;47.25;;;;;;;11.35;59.96;101411.74;147424;1147;104543;-79
2021/03/29 08:44:47;;;;;;;37.73;24.40;;;;;;;11.39;60.31;101406.02;147467;1147;104583;-77
2021/03/29 08:47:53;;;;;;;30.75;20.45;;;;;;;11.46;59.78;101408.17;147617;1147;104536;-78
2021/03/29 08:50:57;;;;;;;42.70;27.42;;;;;;;11.49;59.43;101406.09;147469;1147;104471;-78
2021/03/29 08:54:07;;;;;;;45.07;30.17;;;;;;;11.57;59.98;101408.95;147419;1147;104535;-80
2021/03/29 08:57:11;;;;;;;99.90;66.62;;;;;;;11.73;60.04;101405.80;147807;1147;104546;-81
2021/03/29 09:00:18;;;;;;;109.65;62.43;;;;;;;11.92;59.61;101412.27;147742;1147;104553;-78
2021/03/29 09:03:23;;;;;;;84.90;49.67;;;;;;;12.05;59.83;101418.24;147559;1147;104582;-81
2021/03/29 09:06:27;;;;;;;104.23;62.65;;;;;;;12.23;59.12;101417.61;147821;1147;104847;-77
2021/03/29 09:09:31;;;;;;;50.43;32.48;;;;;;;12.39;59.20;101412.57;147673;1147;104657;-80
2021/03/29 09:12:34;;;;;;;47.05;29.90;;;;;;;12.54;59.06;101418.39;147717;1147;104531;-78
2021/03/29 09:15:40;;;;;;;33.48;23.12;;;;;;;12.61;58.98;101422.23;147524;1147;104539;-78
2021/03/29 09:18:43;;;;;;;28.87;18.80;;;;;;;12.71;59.04;101424.92;147836;1147;104518;-77
2021/03/29 09:21:53;;;;;;;31.48;21.40;;;;;;;12.81;58.98;101423.09;147553;1147;104453;-82
2021/03/29 09:24:58;;;;;;;38.77;27.83;;;;;;;12.88;58.71;101429.59;147723;1147;104468;-81
2021/03/29 09:28:15;;;;;;;40.90;29.25;;;;;;;12.94;58.30;101418.31;147933;1147;104445;-80
2021/03/29 09:31:22;;;;;;;29.87;20.67;;;;;;;12.94;57.95;101425.52;147893;1147;104556;-82
2021/03/29 09:34:25;;;;;;;21.07;13.32;;;;;;;12.91;58.06;101421.29;147846;1147;104444;-85
2021/03/29 09:37:30;;;;;;;47.65;30.55;;;;;;;12.95;57.99;101422.70;147992;1147;104472;-81
2021/03/29 09:40:38;;;;;;;79.03;48.40;;;;;;;12.95;57.77;101430.73;148056;1147;105132;-82
2021/03/29 09:43:43;;;;;;;64.97;39.70;;;;;;;12.99;58.23;101428.62;147921;1147;104468;-80
2021/03/29 09:46:55;;;;;;;44.18;27.50;;;;;;;12.96;58.15;101429.73;147711;1147;104510;-80
2021/03/29 09:49:58;;;;;;;39.05;24.43;;;;;;;12.93;57.75;101434.52;147685;1146;104563;-82
2021/03/29 09:53:15;;;;;;;36.03;22.70;;;;;;;12.87;58.10;101427.89;147675;1147;104448;-81
2021/03/29 09:56:28;;;;;;;25.73;15.30;;;;;;;12.80;57.99;101434.81;147745;1148;104543;-79
2021/03/29 09:59:35;;;;;;;37.78;22.10;;;;;;;12.74;57.91;101430.85;147791;1147;104444;-80
2021/03/29 10:02:39;;;;;;;27.47;16.67;;;;;;;12.67;58.06;101428.86;147549;1146;104906;-81
2021/03/29 10:05:42;;;;;;;28.90;16.95;;;;;;;12.67;58.12;101436.90;147475;1148;104515;-79
2021/03/29 10:08:57;;;;;;;68.72;37.90;;;;;;;12.63;57.65;101428.28;147509;1148;104544;-81
2021/03/29 10:12:01;;;;;;;31.20;18.17;;;;;;;12.65;58.02;101429.00;147808;1147;104448;-80
2021/03/29 10:15:11;;;;;;;57.27;32.13;;;;;;;12.66;57.88;101427.16;148028;1147;104941;-78
2021/03/29 10:18:15;;;;;;;21.97;13.80;;;;;;;12.73;57.66;101428.30;147967;1147;104558;-81
2021/03/29 10:21:19;;;;;;;28.47;16.62;;;;;;;12.69;57.40;101421.53;147828;1148;104545;-80
2021/03/29 10:24:23;;;;;;;35.03;20.23;;;;;;;12.71;57.43;101419.56;147719;1147;104464;-77
2021/03/29 10:27:36;;;;;;;61.02;34.70;;;;;;;12.71;56.99;101425.76;147633;1147;104544;-82
2021/03/29 10:30:39;;;;;;;105.78;49.67;;;;;;;12.72;57.15;101421.23;147580;1147;104446;-76
2021/03/29 10:33:43;;;;;;;58.08;28.17;;;;;;;12.76;57.06;101428.88;147784;1147;104639;-77
2021/03/29 10:36:46;;;;;;;62.43;30.93;;;;;;;12.79;57.13;101432.27;147734;1148;104469;-78
2021/03/29 10:39:49;;;;;;;97.25;48.85;;;;;;;12.76;57.14;101428.88;147876;1146;104429;-76
2021/03/29 10:47:08;;;;;;;35.33;20.05;;;;;;;12.78;57.15;101426.06;147692;1146;104540;-83
2021/03/29 10:50:14;;;;;;;90.23;46.20;;;;;;;12.80;56.70;101421.41;147685;1146;104612;-85
2021/03/29 10:53:17;;;;;;;54.38;31.15;;;;;;;12.85;56.54;101426.34;147710;1147;104465;-83
2021/03/29 10:56:20;;;;;;;28.90;17.55;;;;;;;12.86;56.44;101420.85;147519;1147;104449;-84
2021/03/29 10:59:23;;;;;;;25.20;13.60;;;;;;;12.85;56.54;101429.86;147536;1147;104465;-83
2021/03/29 11:02:26;;;;;;;17.57;10.30;;;;;;;12.87;56.56;101429.73;147913;1147;104503;-82
2021/03/29 11:05:29;;;;;;;40.28;24.20;;;;;;;12.87;56.56;101430.56;147640;1147;104556;-83
2021/03/29 11:08:33;;;;;;;29.83;18.80;;;;;;;12.89;56.45;101427.75;147687;1148;104428;-83
2021/03/29 11:11:37;;;;;;;19.47;12.40;;;;;;;12.97;56.33;101430.57;147867;1147;104593;-80
2021/03/29 11:14:40;;;;;;;16.90;10.03;;;;;;;13.09;56.54;101418.75;147807;1147;104884;-82
2021/03/29 11:17:43;;;;;;;19.48;11.75;;;;;;;13.22;56.57;101412.25;147469;1147;104531;-82
2021/03/29 11:20:46;;;;;;;19.65;14.25;;;;;;;13.34;55.84;101419.20;147565;1147;104617;-83
2021/03/29 11:23:50;;;;;;;18.32;12.10;;;;;;;13.38;55.83;101411.72;147682;1148;104451;-82
2021/03/29 11:26:53;;;;;;;13.73;8.60;;;;;;;13.40;55.82;101415.95;147666;1146;104454;-85
2021/03/29 11:29:56;;;;;;;31.57;20.95;;;;;;;13.39;56.30;101410.72;147606;1147;104423;-82
2021/03/29 11:32:59;;;;;;;21.12;12.75;;;;;;;13.46;55.97;101415.36;147801;1145;104543;-83
2021/03/29 11:36:02;;;;;;;26.00;13.28;;;;;;;13.47;56.13;101417.07;147693;1147;104588;-82
2021/03/29 11:39:08;;;;;;;183.22;88.12;;;;;;;13.48;56.36;101412.55;147704;1147;104532;-82
2021/03/29 11:42:12;;;;;;;59.25;29.80;;;;;;;13.49;56.36;101408.86;147433;1147;104487;-75
2021/03/29 11:45:16;;;;;;;41.90;23.35;;;;;;;13.53;56.25;101410.29;147378;1147;104870;-75
2021/03/29 11:48:20;;;;;;;44.88;24.20;;;;;;;13.60;56.24;101408.70;147422;1147;104452;-81
2021/03/29 11:51:23;;;;;;;16.83;9.47;;;;;;;13.69;56.14;101410.52;147438;1147;104605;-82
2021/03/29 11:54:27;;;;;;;40.38;19.98;;;;;;;13.79;56.20;101405.12;147724;1147;104468;-80
2021/03/29 11:57:30;;;;;;;25.60;14.20;;;;;;;13.86;56.11;101410.77;147574;1147;104449;-77
2021/03/29 12:00:46;;;;;;;65.78;36.42;;;;;;;13.86;55.81;101405.41;147344;1147;104560;-76
2021/03/29 12:03:54;;;;;;;35.23;19.50;;;;;;;13.87;56.18;101409.77;147560;1148;104598;-75
2021/03/29 12:07:04;;;;;;;56.00;28.53;;;;;;;13.90;55.50;101406.80;147741;1147;104531;-76
2021/03/29 12:13:35;;;;;;;29.72;20.10;;;;;;;13.99;56.12;101397.88;147839;1147;104486;-80
2021/03/29 12:16:41;;;;;;;34.15;22.22;;;;;;;14.01;54.97;101405.75;147740;1147;104628;-81
2021/03/29 12:19:45;;;;;;;44.70;28.03;;;;;;;14.10;55.27;101403.02;147596;1147;104496;-83
2021/03/29 12:22:49;;;;;;;31.60;18.15;;;;;;;14.21;55.40;101398.48;147824;1147;104722;-83
2021/03/29 12:25:53;;;;;;;18.13;11.57;;;;;;;14.34;55.57;101388.23;147533;1148;104470;-79
2021/03/29 12:28:59;;;;;;;33.42;21.48;;;;;;;14.45;55.66;101382.66;147778;1147;104575;-80
2021/03/29 12:32:03;;;;;;;37.25;22.85;;;;;;;14.60;55.00;101388.38;147680;1147;104453;-80
2021/03/29 12:35:11;;;;;;;19.75;12.50;;;;;;;14.66;54.79;101376.18;147744;1147;104841;-80
2021/03/29 12:38:15;;;;;;;17.92;10.68;;;;;;;14.66;55.74;101387.77;147634;1147;104547;-78
2021/03/29 12:41:20;;;;;;;16.50;12.33;;;;;;;14.70;55.02;101372.19;147354;1147;104627;-81
2021/03/29 12:44:24;;;;;;;13.55;8.45;;;;;;;14.65;54.82;101374.50;147761;1147;104556;-79
2021/03/29 12:47:31;;;;;;;11.78;8.03;;;;;;;14.60;55.14;101377.62;147782;1148;104547;-78
2021/03/29 12:50:34;;;;;;;11.75;7.55;;;;;;;14.52;55.27;101372.98;147813;1147;104545;-78
2021/03/29 12:53:37;;;;;;;14.30;7.87;;;;;;;14.47;55.15;101372.61;147786;1147;104708;-79
2021/03/29 12:56:43;;;;;;;20.90;11.90;;;;;;;14.36;55.36;101372.82;147837;1147;104650;-80
2021/03/29 12:59:46;;;;;;;72.17;38.83;;;;;;;14.33;54.97;101370.42;147948;1147;104473;-79
2021/03/29 13:02:50;;;;;;;57.83;29.05;;;;;;;14.37;55.06;101376.34;147786;1146;104445;-79
2021/03/29 13:05:55;;;;;;;41.35;23.60;;;;;;;14.47;55.64;101369.93;147832;1148;104491;-79
2021/03/29 13:09:02;;;;;;;21.90;12.10;;;;;;;14.50;54.83;101361.55;147781;1146;104623;-79
2021/03/29 13:12:08;;;;;;;13.55;8.20;;;;;;;14.48;55.23;101357.34;147812;1147;104549;-79
2021/03/29 13:15:14;;;;;;;15.03;8.70;;;;;;;14.50;54.85;101356.18;147797;1147;104470;-77
2021/03/29 13:18:19;;;;;;;20.80;9.65;;;;;;;14.48;55.54;101347.43;147323;1147;104538;-78
2021/03/29 13:21:23;;;;;;;13.28;8.50;;;;;;;14.45;54.91;101353.13;147498;1146;104547;-78
2021/03/29 13:24:26;;;;;;;15.72;9.35;;;;;;;14.42;55.23;101358.78;147653;1147;104607;-82
2021/03/29 13:27:29;;;;;;;14.03;9.53;;;;;;;14.39;55.56;101353.70;147783;1148;104621;-80
2021/03/29 13:30:33;;;;;;;15.20;10.63;;;;;;;14.34;55.31;101356.02;147832;1146;104658;-78
2021/03/29 13:33:37;;;;;;;17.42;11.57;;;;;;;14.25;55.24;101336.27;147770;1147;104522;-79
2021/03/29 13:36:40;;;;;;;15.78;10.00;;;;;;;14.26;54.96;101347.84;147697;1147;104465;-79
2021/03/29 13:39:44;;;;;;;28.12;19.60;;;;;;;14.30;55.65;101343.89;147526;1147;104671;-78
2021/03/29 13:42:48;;;;;;;16.82;11.90;;;;;;;14.34;55.54;101340.75;147650;1147;104543;-79
2021/03/29 13:45:51;;;;;;;26.17;17.85;;;;;;;14.33;55.53;101339.04;147745;1146;104460;-79
2021/03/29 13:48:56;;;;;;;14.18;9.20;;;;;;;14.40;55.30;101344.67;147564;1146;104476;-79
2021/03/29 13:52:01;;;;;;;12.30;8.73;;;;;;;14.48;55.49;101351.97;147366;1147;104444;-80
2021/03/29 13:55:06;;;;;;;14.40;10.55;;;;;;;14.57;55.94;101340.34;147260;1147;104601;-79
2021/03/29 13:58:09;;;;;;;15.58;10.00;;;;;;;14.57;55.65;101332.30;147248;1147;104568;-78